Webcam

2018/01/17 13:50 EBBR 171350Z 27016G28KT 9999 FEW029 BKN040 06/M00 Q1006 NOSIG

Webcam

--- Refresh now ---